Amber Lagoon — V7FS4 — position and weather

sailwx.info

Track history (hours):
 
Tides and Currents Weather Stations Pressure Air Temp Water Temp Dewpoint Dewpoint Depression Visibility Wind Speed Wind Dir Waves Ship Positions

Amber Lagoon

Last reported at 2015-Jul-02 07:34 UTC. Time now 2015-Jul-02 08:10 UTC.
Position N 53°38' W 000°11'.

Length 192 m; draft 10.1 m.

Type: Cargo ship. MMSI: 538090116.

Date/timePositionNaut miles runAvg speedWind from/ knotsBaromVisibWave heightAir tempDewpointWater temp
2015-Jul-02 07:34N 53°38' W 000°11'0 0.0
2015-Jul-02 06:34N 53°38' W 000°11'0 0.0
2015-Jul-02 05:34N 53°38' W 000°11'0 0.0
2015-Jul-02 04:33N 53°38' W 000°11'0 0.0
2015-Jul-02 03:33N 53°38' W 000°11'0 0.0
2015-Jul-02 02:34N 53°38' W 000°11'0 0.0
2015-Jul-02 01:33N 53°38' W 000°11'0 0.0
2015-Jul-02 00:33N 53°38' W 000°11'0 0.0
2015-Jul-01 23:33N 53°38' W 000°11'0 0.0
2015-Jul-01 22:33N 53°38' W 000°11'0 0.0
2015-Jul-01 21:34N 53°38' W 000°11'0 0.0
2015-Jul-01 20:34N 53°38' W 000°11'0 0.0
2015-Jul-01 19:34N 53°38' W 000°11'0 0.0
2015-Jul-01 18:34N 53°38' W 000°11'0 0.0
2015-Jul-01 17:34N 53°38' W 000°11'0 0.0
2015-Jul-01 16:33N 53°38' W 000°11'0 0.0
2015-Jul-01 15:33N 53°38' W 000°11'0 0.0
2015-Jul-01 14:33N 53°38' W 000°11'0 0.0
2015-Jul-01 13:33N 53°38' W 000°11'0 0.0
2015-Jul-01 12:34N 53°38' W 000°11'0 0.0
2015-Jul-01 11:33N 53°38' W 000°11'0 0.0
2015-Jul-01 10:33N 53°38' W 000°11'0 0.0
2015-Jul-01 09:34N 53°38' W 000°11'0 0.0
2015-Jul-01 08:33N 53°38' W 000°11'0 0.0
2015-Jul-01 07:34N 53°38' W 000°11'0 0.0
2015-Jul-01 06:34N 53°38' W 000°11'0 0.0
2015-Jul-01 05:33N 53°38' W 000°11'0 0.0
2015-Jul-01 04:33N 53°38' W 000°11'0 0.0
2015-Jul-01 03:34N 53°38' W 000°11'0 0.0
2015-Jul-01 02:33N 53°38' W 000°11'0 0.0
2015-Jul-01 01:34N 53°38' W 000°11'0 0.0
2015-Jul-01 00:34N 53°38' W 000°11'0 0.0
2015-Jun-30 23:33N 53°38' W 000°11'0 0.0
2015-Jun-30 22:33N 53°38' W 000°11'0 0.0
2015-Jun-30 21:33N 53°38' W 000°11'0 0.0
2015-Jun-30 20:34N 53°38' W 000°11'0 0.0
2015-Jun-30 19:33N 53°38' W 000°11'0 0.0
2015-Jun-30 18:33N 53°38' W 000°11'0 0.0
2015-Jun-30 17:33N 53°38' W 000°11'0 0.2
2015-Jun-30 16:33N 53°38' W 000°11'0 0.4
2015-Jun-30 15:33N 53°38' W 000°11'7 7.5
2015-Jun-30 14:34N 53°37' E 000°01'9 9.0
2015-Jun-30 13:33N 53°33' E 000°15'9 9.1
2015-Jun-30 12:34N 53°40' E 000°25'10 9.4
2015-Jun-30 11:33N 53°48' E 000°35'6 5.8
2015-Jun-30 10:34N 53°53' E 000°39'2 1.8
2015-Jun-30 09:33N 53°52' E 000°41'2 1.8
2015-Jun-30 08:33N 53°50' E 000°42'1 1.4
2015-Jun-30 07:33N 53°49' E 000°43'3 3.2
2015-Jun-30 06:33N 53°48' E 000°48'8 7.8
2015-Jun-30 05:30N 53°49' E 001°02'7 7.5
2015-Jun-30 04:31N 53°49' E 001°15'7 7.6
2015-Jun-30 03:33N 53°49' E 001°27'9 8.8
2015-Jun-30 02:33N 53°49' E 001°42'1010.2
2015-Jun-30 01:33N 53°46' E 001°58'1110.7
2015-Jun-30 00:33N 53°44' E 002°16'2210.2
2015-Jun-29 22:25N 53°29' E 002°43'2110.2
2015-Jun-29 20:21N 53°08' E 002°40'8 9.5
2015-Jun-29 19:33N 53°01' E 002°40'9 9.2
2015-Jun-29 18:33N 52°51' E 002°40'9 9.1
2015-Jun-29 17:33N 52°42' E 002°40'10 9.6
2015-Jun-29 16:33N 52°33' E 002°40'1110.9
2015-Jun-29 15:32N 52°21' E 002°39'1616.4
2015-Jun-29 14:33N 52°05' E 002°37'1515.1
2015-Jun-29 13:33N 51°50' E 002°37'2914.4
2015-Jun-29 11:33N 51°27' E 002°09'1514.8
2015-Jun-29 10:33N 51°16' E 001°53'1515.2
2015-Jun-29 09:34N 51°04' E 001°39'1514.8
2015-Jun-29 08:33N 50°52' E 001°25'1613.7
2015-Jun-29 07:24N 50°38' E 001°13'1214.0
2015-Jun-29 06:33N 50°31' E 000°58'1414.1
2015-Jun-29 05:32N 50°27' E 000°37'1814.2
2015-Jun-29 04:16N 50°22' E 000°10'3912.9
2015-Jun-29 01:14N 50°11' W 000°49'811.7
2015-Jun-29 00:33N 50°09' W 001°01'1211.1
2015-Jun-28 23:29N 50°06' W 001°19'1011.0
2015-Jun-28 22:33N 50°03' W 001°34'1211.4
2015-Jun-28 21:33N 49°59' W 001°51'1212.2
2015-Jun-28 20:32N 49°56' W 002°10'1313.5
2015-Jun-28 19:33N 49°53' W 002°30'1614.0
2015-Jun-28 18:27N 49°49' W 002°53'2714.1
2015-Jun-28 16:31N 49°42' W 003°34'1614.1
2015-Jun-28 15:25N 49°38' W 003°57'  
2015-Jun-25 09:32N 40°03' W 029°13'1515.2
2015-Jun-25 08:33N 39°56' W 029°30'1515.3
2015-Jun-25 07:34N 39°48' W 029°47'1515.3
2015-Jun-25 06:33N 39°41' W 030°04'1815.5
2015-Jun-25 05:24N 39°33' W 030°25'1415.8
2015-Jun-25 04:31N 39°26' W 030°41'1615.6
2015-Jun-25 03:30N 39°19' W 030°59'1515.3
2015-Jun-25 02:33N 39°12' W 031°16'1615.7
2015-Jun-25 01:34N 39°08' W 031°36'1615.6
2015-Jun-25 00:33N 39°04' W 031°55'  
Track history (hours):
 
Tides and Currents Weather Stations Pressure Air Temp Water Temp Dewpoint Dewpoint Depression Visibility Wind Speed Wind Dir Waves Ship Positions

Amber Lagoon

Last reported at 2015-Jul-02 07:34 UTC. Time now 2015-Jul-02 08:10 UTC.
Position N 53°38' W 000°11'.

Length 192 m; draft 10.1 m.

Type: Cargo ship. MMSI: 538090116.

Date/timePositionNaut miles runAvg speedWind from/ knotsBaromVisibWave heightAir tempDewpointWater temp
2015-Jul-02 07:34N 53°38' W 000°11'0 0.0
2015-Jul-02 06:34N 53°38' W 000°11'0 0.0
2015-Jul-02 05:34N 53°38' W 000°11'0 0.0
2015-Jul-02 04:33N 53°38' W 000°11'0 0.0
2015-Jul-02 03:33N 53°38' W 000°11'0 0.0
2015-Jul-02 02:34N 53°38' W 000°11'0 0.0
2015-Jul-02 01:33N 53°38' W 000°11'0 0.0
2015-Jul-02 00:33N 53°38' W 000°11'0 0.0
2015-Jul-01 23:33N 53°38' W 000°11'0 0.0
2015-Jul-01 22:33N 53°38' W 000°11'0 0.0
2015-Jul-01 21:34N 53°38' W 000°11'0 0.0
2015-Jul-01 20:34N 53°38' W 000°11'0 0.0
2015-Jul-01 19:34N 53°38' W 000°11'0 0.0
2015-Jul-01 18:34N 53°38' W 000°11'0 0.0
2015-Jul-01 17:34N 53°38' W 000°11'0 0.0
2015-Jul-01 16:33N 53°38' W 000°11'0 0.0
2015-Jul-01 15:33N 53°38' W 000°11'0 0.0
2015-Jul-01 14:33N 53°38' W 000°11'0 0.0
2015-Jul-01 13:33N 53°38' W 000°11'0 0.0
2015-Jul-01 12:34N 53°38' W 000°11'0 0.0
2015-Jul-01 11:33N 53°38' W 000°11'0 0.0
2015-Jul-01 10:33N 53°38' W 000°11'0 0.0
2015-Jul-01 09:34N 53°38' W 000°11'0 0.0
2015-Jul-01 08:33N 53°38' W 000°11'0 0.0
2015-Jul-01 07:34N 53°38' W 000°11'0 0.0
2015-Jul-01 06:34N 53°38' W 000°11'0 0.0
2015-Jul-01 05:33N 53°38' W 000°11'0 0.0
2015-Jul-01 04:33N 53°38' W 000°11'0 0.0
2015-Jul-01 03:34N 53°38' W 000°11'0 0.0
2015-Jul-01 02:33N 53°38' W 000°11'0 0.0
2015-Jul-01 01:34N 53°38' W 000°11'0 0.0
2015-Jul-01 00:34N 53°38' W 000°11'0 0.0
2015-Jun-30 23:33N 53°38' W 000°11'0 0.0
2015-Jun-30 22:33N 53°38' W 000°11'0 0.0
2015-Jun-30 21:33N 53°38' W 000°11'0 0.0
2015-Jun-30 20:34N 53°38' W 000°11'0 0.0
2015-Jun-30 19:33N 53°38' W 000°11'0 0.0
2015-Jun-30 18:33N 53°38' W 000°11'0 0.0
2015-Jun-30 17:33N 53°38' W 000°11'0 0.2
2015-Jun-30 16:33N 53°38' W 000°11'0 0.4
2015-Jun-30 15:33N 53°38' W 000°11'7 7.5
2015-Jun-30 14:34N 53°37' E 000°01'9 9.0
2015-Jun-30 13:33N 53°33' E 000°15'9 9.1
2015-Jun-30 12:34N 53°40' E 000°25'10 9.4
2015-Jun-30 11:33N 53°48' E 000°35'6 5.8
2015-Jun-30 10:34N 53°53' E 000°39'2 1.8
2015-Jun-30 09:33N 53°52' E 000°41'2 1.8
2015-Jun-30 08:33N 53°50' E 000°42'1 1.4
2015-Jun-30 07:33N 53°49' E 000°43'3 3.2
2015-Jun-30 06:33N 53°48' E 000°48'8 7.8
2015-Jun-30 05:30N 53°49' E 001°02'7 7.5
2015-Jun-30 04:31N 53°49' E 001°15'7 7.6
2015-Jun-30 03:33N 53°49' E 001°27'9 8.8
2015-Jun-30 02:33N 53°49' E 001°42'1010.2
2015-Jun-30 01:33N 53°46' E 001°58'1110.7
2015-Jun-30 00:33N 53°44' E 002°16'2210.2
2015-Jun-29 22:25N 53°29' E 002°43'2110.2
2015-Jun-29 20:21N 53°08' E 002°40'8 9.5
2015-Jun-29 19:33N 53°01' E 002°40'9 9.2
2015-Jun-29 18:33N 52°51' E 002°40'9 9.1
2015-Jun-29 17:33N 52°42' E 002°40'10 9.6
2015-Jun-29 16:33N 52°33' E 002°40'1110.9
2015-Jun-29 15:32N 52°21' E 002°39'1616.4
2015-Jun-29 14:33N 52°05' E 002°37'1515.1
2015-Jun-29 13:33N 51°50' E 002°37'2914.4
2015-Jun-29 11:33N 51°27' E 002°09'1514.8
2015-Jun-29 10:33N 51°16' E 001°53'1515.2
2015-Jun-29 09:34N 51°04' E 001°39'1514.8
2015-Jun-29 08:33N 50°52' E 001°25'1613.7
2015-Jun-29 07:24N 50°38' E 001°13'1214.0
2015-Jun-29 06:33N 50°31' E 000°58'1414.1
2015-Jun-29 05:32N 50°27' E 000°37'1814.2
2015-Jun-29 04:16N 50°22' E 000°10'3912.9
2015-Jun-29 01:14N 50°11' W 000°49'811.7
2015-Jun-29 00:33N 50°09' W 001°01'1211.1
2015-Jun-28 23:29N 50°06' W 001°19'1011.0
2015-Jun-28 22:33N 50°03' W 001°34'1211.4
2015-Jun-28 21:33N 49°59' W 001°51'1212.2
2015-Jun-28 20:32N 49°56' W 002°10'1313.5
2015-Jun-28 19:33N 49°53' W 002°30'1614.0
2015-Jun-28 18:27N 49°49' W 002°53'2714.1
2015-Jun-28 16:31N 49°42' W 003°34'1614.1
2015-Jun-28 15:25N 49°38' W 003°57'  
2015-Jun-25 09:32N 40°03' W 029°13'1515.2
2015-Jun-25 08:33N 39°56' W 029°30'1515.3
2015-Jun-25 07:34N 39°48' W 029°47'1515.3
2015-Jun-25 06:33N 39°41' W 030°04'1815.5
2015-Jun-25 05:24N 39°33' W 030°25'1415.8
2015-Jun-25 04:31N 39°26' W 030°41'1615.6
2015-Jun-25 03:30N 39°19' W 030°59'1515.3
2015-Jun-25 02:33N 39°12' W 031°16'1615.7
2015-Jun-25 01:34N 39°08' W 031°36'1615.6
2015-Jun-25 00:33N 39°04' W 031°55'  

Dump ship's entire track history